LYBE/BEG METAR and TAF weather

Enter ICAO airport designator
Station Type Date Time Source
LYBE METAR 2021/12/06 23:30 UTC NOAA

LYBE 062330Z 30008KT 5000 -RA BR BKN004 BKN040 03/02 Q1010 NOSIG


Station Type Date Time Source
LYBE Decoded METAR 2021/12/06 23:30 UTC NOAA

Beograd / Surcin, Serbia and Montenegro (LYBE) 44-49N 020-17E 99M
Dec 06, 2021 - 06:30 PM EST / 2021.12.06 2330 UTC
Wind: from the WNW (300 degrees) at 9 MPH (8 KT):0
Visibility: 3 mile(s):0
Sky conditions: mostly cloudy
Weather: light rain; mist
Temperature: 37 F (3 C)
Dew Point: 35 F (2 C)
Relative Humidity: 93%
Pressure (altimeter): 29.83 in. Hg (1010 hPa)
ob: LYBE 062330Z 30008KT 5000 -RA BR BKN004 BKN040 03/02 Q1010 NOSIG
cycle: 23

Station Type Date Time Source
LYBE TAF 2021/12/06 18:21 UTC NOAA

TAF TAF LYBE 061700Z 0618/0718 28012KT 8000 BKN005 BKN020 TX03/0618Z TN01/0706Z
TEMPO 0620/0704 5000 -RA BR
TEMPO 0704/0708 1500 -SN
BECMG 0711/0713 SCT015 BKN030

Example: see airport list